createdAt,value
2018-06-21T00:00:09.379Z,99.90
2018-06-21T00:02:38.116Z,99.90
2018-06-21T00:05:06.823Z,99.90
2018-06-21T00:07:35.528Z,99.90
2018-06-21T00:10:04.276Z,99.90
2018-06-21T00:12:33.134Z,99.90
2018-06-21T00:15:01.840Z,99.90
2018-06-21T00:17:30.510Z,99.90
2018-06-21T00:19:59.284Z,99.90
2018-06-21T00:22:27.909Z,99.90
2018-06-21T00:24:56.572Z,99.90
2018-06-21T00:27:25.270Z,99.90
2018-06-21T00:29:53.954Z,99.90
2018-06-21T00:32:22.621Z,99.90
2018-06-21T00:34:51.214Z,99.90
2018-06-21T00:37:19.968Z,99.90
2018-06-21T00:39:48.797Z,99.90
2018-06-21T00:42:17.506Z,99.90
2018-06-21T00:44:46.236Z,99.90
2018-06-21T00:47:14.991Z,99.90
2018-06-21T00:49:43.584Z,99.90
2018-06-21T00:52:12.287Z,99.90
2018-06-21T00:54:40.968Z,99.90
2018-06-21T00:57:09.676Z,99.90
2018-06-21T00:59:38.322Z,99.90
2018-06-21T01:02:07.049Z,99.90
2018-06-21T01:07:04.036Z,99.90
2018-06-21T01:09:32.747Z,99.90
2018-06-21T01:12:01.375Z,99.90
2018-06-21T01:14:30.032Z,99.90
2018-06-21T01:16:58.686Z,99.90
2018-06-21T01:19:27.481Z,99.90
2018-06-21T01:21:56.146Z,99.90
2018-06-21T01:24:25.184Z,99.90
2018-06-21T01:26:53.765Z,99.90
2018-06-21T01:35:19.988Z,99.90
2018-06-21T01:37:48.790Z,99.90
2018-06-21T01:40:17.438Z,99.90
2018-06-21T01:42:46.087Z,99.90
2018-06-21T01:45:14.759Z,99.90
2018-06-21T01:47:43.381Z,99.90
2018-06-21T01:50:12.026Z,99.90
2018-06-21T01:52:40.707Z,99.90
2018-06-21T01:55:09.353Z,99.90
2018-06-21T01:57:37.903Z,99.90
2018-06-21T02:00:06.626Z,99.90
2018-06-21T02:02:35.310Z,99.90
2018-06-21T02:05:04.094Z,99.90
2018-06-21T02:07:32.780Z,99.90
2018-06-21T02:10:01.406Z,99.90
2018-06-21T02:12:30.138Z,99.90
2018-06-21T02:14:58.826Z,99.90
2018-06-21T02:17:27.677Z,99.90
2018-06-21T02:19:56.331Z,99.90
2018-06-21T02:22:25.001Z,99.90
2018-06-21T02:24:53.706Z,99.90
2018-06-21T02:27:22.450Z,99.90
2018-06-21T02:29:51.073Z,99.90
2018-06-21T02:32:19.819Z,99.90
2018-06-21T02:34:48.599Z,99.90
2018-06-21T02:37:17.389Z,99.90
2018-06-21T02:39:46.113Z,99.90
2018-06-21T02:42:14.805Z,99.90
2018-06-21T02:44:43.517Z,99.90
2018-06-21T02:47:12.116Z,99.90
2018-06-21T02:49:40.779Z,99.90
2018-06-21T02:52:09.447Z,99.90
2018-06-21T02:54:38.149Z,99.90
2018-06-21T02:57:06.873Z,99.90
2018-06-21T02:59:35.549Z,99.90
2018-06-21T03:02:04.212Z,99.90
2018-06-21T03:04:32.870Z,99.90
2018-06-21T03:07:01.479Z,99.90
2018-06-21T03:09:30.127Z,99.90
2018-06-21T03:11:58.867Z,99.90
2018-06-21T03:14:27.536Z,99.90
2018-06-21T03:16:56.230Z,99.90
2018-06-21T03:19:24.886Z,99.90
2018-06-21T03:22:11.826Z,99.90
2018-06-21T03:24:40.553Z,99.90
2018-06-21T03:27:10.004Z,99.90
2018-06-21T03:29:39.200Z,99.90
2018-06-21T03:32:07.827Z,99.90
2018-06-21T03:34:36.430Z,99.90
2018-06-21T03:37:05.233Z,99.90
2018-06-21T03:39:33.856Z,99.90
2018-06-21T03:42:02.540Z,99.90
2018-06-21T03:44:31.183Z,99.90
2018-06-21T03:46:59.936Z,99.90
2018-06-21T03:49:28.547Z,99.90
2018-06-21T03:51:57.333Z,99.90
2018-06-21T03:56:54.287Z,99.90
2018-06-21T03:59:22.940Z,99.90
2018-06-21T04:01:51.558Z,99.90
2018-06-21T04:04:20.258Z,99.90
2018-06-21T04:06:48.962Z,99.90
2018-06-21T04:09:17.757Z,99.90
2018-06-21T04:11:46.430Z,99.90
2018-06-21T04:14:15.193Z,99.90
2018-06-21T04:16:44.002Z,99.90
2018-06-21T04:19:12.779Z,99.90
2018-06-21T04:21:41.603Z,99.90
2018-06-21T04:24:10.318Z,99.90
2018-06-21T04:26:39.140Z,99.90
2018-06-21T04:29:07.761Z,99.90
2018-06-21T04:31:36.516Z,99.90
2018-06-21T04:34:05.296Z,99.90
2018-06-21T04:36:34.426Z,99.90
2018-06-21T04:39:03.407Z,99.90
2018-06-21T04:41:32.108Z,99.90
2018-06-21T04:44:00.857Z,99.90
2018-06-21T04:46:29.576Z,99.90
2018-06-21T04:48:58.264Z,99.90
2018-06-21T04:51:26.919Z,99.90
2018-06-21T04:53:55.699Z,99.90
2018-06-21T04:56:24.942Z,99.90
2018-06-21T04:58:53.679Z,99.90
2018-06-21T05:01:22.435Z,99.90
2018-06-21T05:03:51.189Z,99.90
2018-06-21T05:06:19.991Z,99.90
2018-06-21T05:08:48.678Z,99.90
2018-06-21T05:11:17.422Z,99.90
2018-06-21T05:13:46.120Z,99.90
2018-06-21T05:16:14.823Z,99.90
2018-06-21T05:18:43.426Z,99.90
2018-06-21T05:21:12.164Z,99.90
2018-06-21T05:23:40.933Z,99.90
2018-06-21T05:26:09.650Z,99.90
2018-06-21T05:28:38.337Z,99.90
2018-06-21T05:33:35.482Z,99.90
2018-06-21T05:36:04.166Z,99.90
2018-06-21T05:38:32.980Z,99.90
2018-06-21T05:41:01.668Z,99.90
2018-06-21T05:43:30.413Z,99.90
2018-06-21T05:45:59.113Z,99.90
2018-06-21T05:48:27.772Z,99.90
2018-06-21T05:50:56.613Z,99.90
2018-06-21T05:53:25.274Z,99.90
2018-06-21T05:55:54.019Z,99.90
2018-06-21T05:58:22.734Z,99.90
2018-06-21T06:00:51.435Z,99.90
2018-06-21T06:03:20.165Z,99.90
2018-06-21T06:05:48.876Z,99.90
2018-06-21T06:08:17.521Z,99.90
2018-06-21T06:10:46.171Z,99.90
2018-06-21T06:13:14.955Z,99.90
2018-06-21T06:15:43.807Z,99.90
2018-06-21T06:18:12.603Z,99.90
2018-06-21T06:20:41.259Z,99.90
2018-06-21T06:23:09.999Z,99.90
2018-06-21T06:25:38.651Z,99.90
2018-06-21T06:28:07.483Z,99.90
2018-06-21T06:30:36.351Z,99.90
2018-06-21T06:33:05.112Z,99.90
2018-06-21T06:35:33.999Z,99.90
2018-06-21T06:38:02.700Z,99.90
2018-06-21T06:40:31.440Z,99.90
2018-06-21T06:43:00.034Z,99.90
2018-06-21T06:45:28.814Z,99.90
2018-06-21T06:47:57.518Z,99.90
2018-06-21T06:50:26.200Z,99.90
2018-06-21T06:52:54.946Z,99.90
2018-06-21T06:55:23.717Z,99.90
2018-06-21T06:57:52.390Z,99.90
2018-06-21T07:00:21.025Z,99.90
2018-06-21T07:02:49.813Z,99.90
2018-06-21T07:05:18.480Z,99.90
2018-06-21T07:07:47.110Z,99.90
2018-06-21T07:10:15.739Z,99.90
2018-06-21T07:12:44.502Z,99.90
2018-06-21T07:15:13.314Z,99.90
2018-06-21T07:17:41.947Z,99.90
2018-06-21T07:20:10.585Z,99.90
2018-06-21T07:22:39.207Z,99.90
2018-06-21T07:25:07.865Z,99.90
2018-06-21T07:27:36.571Z,99.90
2018-06-21T07:30:05.308Z,99.90
2018-06-21T07:32:34.246Z,99.90
2018-06-21T07:35:02.987Z,99.90
2018-06-21T07:37:31.724Z,99.90
2018-06-21T07:40:00.431Z,99.90
2018-06-21T07:42:29.078Z,99.90
2018-06-21T07:44:57.757Z,99.90
2018-06-21T07:47:26.451Z,99.90
2018-06-21T07:49:55.115Z,99.90
2018-06-21T07:52:23.899Z,99.90
2018-06-21T07:54:52.570Z,99.90
2018-06-21T07:57:21.194Z,99.90
2018-06-21T07:59:50.068Z,99.90
2018-06-21T08:02:18.761Z,99.90
2018-06-21T08:04:47.473Z,99.90
2018-06-21T08:07:16.199Z,99.90
2018-06-21T08:09:44.819Z,99.90
2018-06-21T08:12:13.425Z,99.90
2018-06-21T08:14:42.059Z,99.90
2018-06-21T08:17:10.764Z,99.90
2018-06-21T08:19:39.371Z,99.90
2018-06-21T08:22:08.014Z,99.30
2018-06-21T08:24:36.665Z,97.80
2018-06-21T08:27:05.504Z,95.00
2018-06-21T08:29:34.083Z,91.80
2018-06-21T08:32:02.725Z,91.70
2018-06-21T08:34:31.390Z,90.80
2018-06-21T08:37:00.103Z,91.00
2018-06-21T08:39:28.798Z,88.70
2018-06-21T08:41:57.423Z,86.30
2018-06-21T08:44:26.130Z,85.30
2018-06-21T08:46:54.959Z,86.30
2018-06-21T08:49:23.708Z,87.10
2018-06-21T08:51:52.346Z,89.40
2018-06-21T08:54:21.212Z,88.80
2018-06-21T08:56:50.079Z,87.60
2018-06-21T08:59:18.819Z,86.70
2018-06-21T09:01:47.647Z,85.60
2018-06-21T09:04:16.335Z,86.80
2018-06-21T09:06:44.957Z,88.50
2018-06-21T09:09:13.681Z,91.00
2018-06-21T09:11:42.409Z,92.90
2018-06-21T09:14:11.095Z,93.70
2018-06-21T09:16:39.773Z,93.40
2018-06-21T09:19:08.445Z,92.00
2018-06-21T09:21:37.134Z,90.60
2018-06-21T09:24:06.033Z,91.00
2018-06-21T09:26:34.699Z,90.70
2018-06-21T09:29:03.391Z,92.30
2018-06-21T09:31:32.095Z,93.70
2018-06-21T09:34:00.707Z,92.70
2018-06-21T09:36:33.535Z,93.20
2018-06-21T09:40:05.810Z,91.50
2018-06-21T09:42:39.758Z,91.20
2018-06-21T09:45:08.395Z,90.80
2018-06-21T09:47:42.254Z,91.90
2018-06-21T09:50:11.039Z,90.20
2018-06-21T09:52:39.906Z,88.90
2018-06-21T09:55:08.616Z,87.70
2018-06-21T09:57:37.314Z,87.20
2018-06-21T10:00:06.013Z,87.90
2018-06-21T10:02:34.662Z,87.00
2018-06-21T10:05:03.334Z,86.40
2018-06-21T10:07:31.985Z,84.90
2018-06-21T10:10:00.822Z,84.30
2018-06-21T10:12:29.575Z,83.20
2018-06-21T10:14:58.235Z,86.20
2018-06-21T10:17:26.922Z,84.80
2018-06-21T10:19:55.636Z,86.40
2018-06-21T10:22:24.247Z,86.40
2018-06-21T10:24:52.927Z,87.10
2018-06-21T10:27:21.659Z,82.50
2018-06-21T10:29:50.313Z,83.00
2018-06-21T10:32:19.058Z,82.70
2018-06-21T10:34:47.672Z,82.70
2018-06-21T10:37:16.350Z,81.90
2018-06-21T10:39:44.939Z,80.50
2018-06-21T10:42:13.573Z,78.70
2018-06-21T10:44:42.190Z,75.80
2018-06-21T10:47:10.874Z,73.30
2018-06-21T10:49:39.608Z,70.60
2018-06-21T10:52:08.349Z,72.10
2018-06-21T10:54:37.053Z,71.00
2018-06-21T10:57:06.077Z,71.40
2018-06-21T10:59:34.715Z,71.20
2018-06-21T11:04:31.671Z,73.70
2018-06-21T11:07:00.270Z,72.80
2018-06-21T11:09:28.844Z,72.10
2018-06-21T11:11:57.458Z,73.80
2018-06-21T11:14:26.211Z,71.90
2018-06-21T11:16:55.053Z,73.30
2018-06-21T11:19:23.702Z,75.20
2018-06-21T11:21:52.295Z,73.90
2018-06-21T11:24:21.042Z,74.60
2018-06-21T11:26:49.902Z,73.90
2018-06-21T11:29:18.642Z,75.80
2018-06-21T11:31:47.326Z,72.30
2018-06-21T11:34:16.030Z,73.80
2018-06-21T11:36:44.792Z,74.90
2018-06-21T11:39:13.483Z,72.40
2018-06-21T11:41:42.192Z,74.30
2018-06-21T11:44:10.921Z,73.50
2018-06-21T11:46:39.747Z,73.00
2018-06-21T11:49:08.452Z,75.00
2018-06-21T11:51:37.134Z,78.00
2018-06-21T11:54:05.914Z,74.80
2018-06-21T11:56:34.655Z,76.40
2018-06-21T11:59:03.302Z,77.90
2018-06-21T12:01:31.963Z,74.50
2018-06-21T12:04:00.641Z,73.90
2018-06-21T12:06:29.273Z,76.00
2018-06-21T12:08:57.968Z,73.60
2018-06-21T12:11:26.648Z,72.90
2018-06-21T12:13:55.378Z,73.70
2018-06-21T12:16:24.135Z,71.70
2018-06-21T12:18:52.825Z,71.10
2018-06-21T12:21:21.622Z,72.30
2018-06-21T12:23:50.272Z,72.30
2018-06-21T12:26:18.959Z,70.50
2018-06-21T12:28:47.666Z,72.90
2018-06-21T12:31:16.305Z,73.30
2018-06-21T12:33:45.041Z,70.80
2018-06-21T12:36:13.735Z,73.60
2018-06-21T12:38:42.432Z,73.20
2018-06-21T12:41:11.282Z,70.80
2018-06-21T12:43:40.404Z,72.90
2018-06-21T12:46:09.150Z,71.60
2018-06-21T12:48:37.886Z,72.20
2018-06-21T12:51:06.603Z,72.20
2018-06-21T12:53:35.401Z,72.90
2018-06-21T12:56:04.148Z,71.60
2018-06-21T12:58:32.888Z,73.70
2018-06-21T13:01:01.574Z,74.50
2018-06-21T13:03:30.292Z,74.80
2018-06-21T13:05:59.033Z,73.10
2018-06-21T13:08:38.908Z,73.30
2018-06-21T13:11:21.732Z,70.70
2018-06-21T13:13:50.464Z,69.00
2018-06-21T13:16:19.086Z,71.70
2018-06-21T13:18:47.947Z,75.00
2018-06-21T13:21:16.567Z,71.50
2018-06-21T13:23:45.251Z,69.00
2018-06-21T13:26:14.061Z,67.90
2018-06-21T13:28:42.714Z,71.80
2018-06-21T13:31:11.462Z,70.50
2018-06-21T13:33:40.193Z,68.40
2018-06-21T13:36:09.003Z,68.40
2018-06-21T13:38:37.727Z,70.30
2018-06-21T13:41:06.431Z,72.20
2018-06-21T13:43:35.155Z,72.40
2018-06-21T13:46:03.851Z,71.70
2018-06-21T13:48:32.488Z,74.40
2018-06-21T13:51:01.153Z,73.80
2018-06-21T13:53:29.946Z,71.40
2018-06-21T13:55:58.571Z,70.60
2018-06-21T13:58:27.224Z,71.40
2018-06-21T14:00:55.862Z,73.20
2018-06-21T14:03:24.612Z,73.00
2018-06-21T14:05:53.329Z,73.80
2018-06-21T14:08:22.121Z,74.80
2018-06-21T14:10:50.728Z,73.20
2018-06-21T14:13:19.400Z,73.90
2018-06-21T14:15:48.150Z,73.30
2018-06-21T14:18:16.886Z,73.60
2018-06-21T14:20:45.743Z,79.60
2018-06-21T14:23:19.887Z,79.40
2018-06-21T14:25:48.487Z,79.30
2018-06-21T14:28:17.172Z,79.00
2018-06-21T14:31:04.896Z,78.70
2018-06-21T14:33:33.807Z,79.50
2018-06-21T14:36:08.342Z,78.80
2018-06-21T14:38:37.126Z,77.10
2018-06-21T14:44:03.382Z,81.90
2018-06-21T14:46:32.186Z,82.40
2018-06-21T14:49:01.023Z,80.40
2018-06-21T14:51:29.767Z,80.30
2018-06-21T14:53:58.542Z,81.10
2018-06-21T14:56:27.382Z,79.40
2018-06-21T14:58:56.111Z,79.70
2018-06-21T15:01:24.758Z,79.80
2018-06-21T15:03:53.487Z,79.00
2018-06-21T15:08:51.408Z,78.90
2018-06-21T15:11:20.253Z,78.90
2018-06-21T15:13:52.663Z,80.50
2018-06-21T15:16:22.588Z,82.70
2018-06-21T15:18:51.339Z,83.00
2018-06-21T15:21:20.088Z,83.70
2018-06-21T15:23:48.961Z,83.80
2018-06-21T15:26:17.737Z,82.60
2018-06-21T15:28:46.442Z,82.50
2018-06-21T15:31:15.132Z,83.60
2018-06-21T15:33:43.909Z,81.80
2018-06-21T15:36:12.626Z,84.10
2018-06-21T15:41:09.704Z,84.40
2018-06-21T15:43:38.411Z,86.80
2018-06-21T15:46:07.168Z,86.80
2018-06-21T15:48:35.935Z,86.80
2018-06-21T15:51:04.698Z,85.80
2018-06-21T15:53:33.349Z,83.20
2018-06-21T15:58:30.368Z,85.70
2018-06-21T16:00:59.082Z,90.40
2018-06-21T16:03:27.754Z,90.20
2018-06-21T16:05:56.411Z,90.70
2018-06-21T16:08:25.105Z,90.90
2018-06-21T16:10:53.733Z,92.00
2018-06-21T16:13:22.450Z,93.10
2018-06-21T16:15:51.202Z,92.70
2018-06-21T16:18:19.854Z,93.80
2018-06-21T16:20:48.619Z,93.80
2018-06-21T16:23:17.401Z,94.10
2018-06-21T16:25:46.174Z,94.90
2018-06-21T16:28:21.243Z,95.50
2018-06-21T16:30:49.884Z,94.50
2018-06-21T16:33:18.534Z,95.10
2018-06-21T16:35:47.235Z,95.70
2018-06-21T16:38:15.897Z,96.10
2018-06-21T16:40:44.537Z,96.30
2018-06-21T16:43:13.252Z,96.30
2018-06-21T16:45:41.962Z,96.40
2018-06-21T16:48:10.735Z,96.30
2018-06-21T16:50:39.334Z,96.40
2018-06-21T16:53:08.099Z,95.50
2018-06-21T16:55:36.961Z,95.50
2018-06-21T16:58:05.834Z,95.30
2018-06-21T17:00:34.506Z,95.20
2018-06-21T17:03:04.413Z,95.60
2018-06-21T17:05:33.200Z,95.70
2018-06-21T17:08:01.903Z,96.40
2018-06-21T17:10:30.560Z,96.50
2018-06-21T17:12:59.300Z,96.50
2018-06-21T17:15:28.053Z,96.90
2018-06-21T17:17:56.882Z,97.30
2018-06-21T17:20:25.538Z,96.90
2018-06-21T17:22:54.331Z,96.20
2018-06-21T17:25:23.103Z,96.90
2018-06-21T17:27:51.846Z,97.40
2018-06-21T17:30:20.640Z,98.50
2018-06-21T17:32:49.577Z,98.50
2018-06-21T17:35:18.278Z,99.20
2018-06-21T17:37:46.982Z,99.40
2018-06-21T17:40:32.443Z,99.50
2018-06-21T17:43:01.193Z,99.90
2018-06-21T17:45:30.017Z,99.50
2018-06-21T17:47:58.776Z,99.30
2018-06-21T17:50:27.483Z,99.60
2018-06-21T17:52:56.210Z,99.30
2018-06-21T17:55:24.892Z,99.00
2018-06-21T17:57:53.714Z,99.40
2018-06-21T18:00:22.306Z,99.50
2018-06-21T18:02:51.038Z,99.40
2018-06-21T18:05:19.686Z,99.70
2018-06-21T18:07:48.421Z,99.90
2018-06-21T18:12:45.450Z,99.70
2018-06-21T18:15:14.127Z,99.60
2018-06-21T18:17:49.908Z,99.70
2018-06-21T18:20:18.614Z,98.90
2018-06-21T18:22:47.357Z,98.80
2018-06-21T18:25:16.207Z,99.30
2018-06-21T18:27:45.141Z,98.50
2018-06-21T18:30:13.948Z,97.30
2018-06-21T18:32:42.701Z,96.80
2018-06-21T18:35:11.383Z,97.30
2018-06-21T18:37:40.145Z,97.10
2018-06-21T18:40:18.818Z,96.80
2018-06-21T18:42:47.499Z,95.90
2018-06-21T18:45:17.218Z,95.00
2018-06-21T18:47:45.896Z,94.20
2018-06-21T18:50:14.623Z,94.50
2018-06-21T18:52:43.583Z,94.70
2018-06-21T18:55:12.361Z,94.80
2018-06-21T18:57:41.105Z,93.50
2018-06-21T19:00:10.948Z,93.30
2018-06-21T19:02:40.077Z,93.10
2018-06-21T19:05:08.819Z,92.40
2018-06-21T19:07:41.091Z,91.80
2018-06-21T19:10:14.979Z,90.60
2018-06-21T19:12:43.949Z,90.20
2018-06-21T19:18:13.484Z,88.40
2018-06-21T19:20:42.260Z,86.60
2018-06-21T19:23:13.176Z,85.90
2018-06-21T19:25:57.810Z,87.10
2018-06-21T19:28:26.587Z,83.80
2018-06-21T19:30:55.295Z,83.90
2018-06-21T19:33:24.146Z,82.20
2018-06-21T19:35:52.821Z,82.50
2018-06-21T19:38:21.654Z,86.30
2018-06-21T19:43:18.836Z,83.20
2018-06-21T19:45:47.491Z,82.80
2018-06-21T19:48:16.228Z,84.40
2018-06-21T19:50:44.939Z,82.60
2018-06-21T19:53:23.226Z,83.10
2018-06-21T19:55:51.994Z,82.60
2018-06-21T19:58:21.735Z,80.60
2018-06-21T20:00:56.238Z,80.50
2018-06-21T20:03:24.966Z,81.60
2018-06-21T20:06:12.384Z,80.70
2018-06-21T20:08:41.559Z,81.50
2018-06-21T20:11:15.616Z,80.20
2018-06-21T20:13:48.910Z,81.00
2018-06-21T20:16:18.314Z,82.80
2018-06-21T20:21:16.633Z,80.40
2018-06-21T20:23:48.493Z,80.60
2018-06-21T20:26:17.919Z,80.00
2018-06-21T20:28:46.638Z,81.00
2018-06-21T20:31:16.667Z,81.40
2018-06-21T20:33:46.507Z,79.20
2018-06-21T20:36:15.655Z,79.20
2018-06-21T20:38:44.412Z,78.80
2018-06-21T20:41:13.246Z,79.40
2018-06-21T20:43:42.031Z,79.80
2018-06-21T20:46:11.057Z,79.10
2018-06-21T20:48:39.791Z,78.80
2018-06-21T20:51:08.550Z,80.20
2018-06-21T20:53:37.171Z,79.00
2018-06-21T20:56:05.920Z,80.30
2018-06-21T20:58:34.628Z,80.00
2018-06-21T21:01:03.367Z,79.60
2018-06-21T21:03:32.172Z,79.90
2018-06-21T21:06:00.836Z,80.50
2018-06-21T21:08:29.504Z,79.70
2018-06-21T21:10:58.192Z,80.70
2018-06-21T21:13:26.847Z,81.80
2018-06-21T21:15:55.542Z,80.70
2018-06-21T21:18:24.213Z,81.20
2018-06-21T21:20:52.916Z,82.30
2018-06-21T21:23:21.551Z,82.60
2018-06-21T21:25:50.301Z,82.80
2018-06-21T21:28:19.024Z,82.50
2018-06-21T21:30:47.731Z,82.80
2018-06-21T21:33:16.501Z,82.50
2018-06-21T21:35:45.191Z,82.90
2018-06-21T21:38:13.941Z,83.70
2018-06-21T21:40:42.610Z,82.70
2018-06-21T21:43:11.226Z,83.20
2018-06-21T21:45:39.916Z,83.50
2018-06-21T21:48:08.481Z,83.50
2018-06-21T21:50:37.227Z,84.20
2018-06-21T21:53:06.006Z,85.00
2018-06-21T21:55:34.716Z,85.50
2018-06-21T21:58:03.386Z,85.80
2018-06-21T22:00:48.904Z,86.10
2018-06-21T22:03:17.573Z,86.10
2018-06-21T22:05:46.519Z,87.00
2018-06-21T22:08:22.734Z,86.70
2018-06-21T22:10:51.383Z,87.40
2018-06-21T22:13:20.079Z,87.40
2018-06-21T22:15:48.826Z,89.00
2018-06-21T22:18:17.593Z,88.40
2018-06-21T22:20:46.274Z,88.10
2018-06-21T22:23:14.982Z,88.60
2018-06-21T22:25:43.753Z,87.60
2018-06-21T22:28:12.489Z,89.60
2018-06-21T22:30:41.229Z,88.30
2018-06-21T22:33:09.923Z,88.90
2018-06-21T22:35:38.602Z,88.70
2018-06-21T22:38:07.266Z,88.80
2018-06-21T22:40:35.960Z,89.20
2018-06-21T22:43:04.578Z,90.10
2018-06-21T22:45:33.291Z,90.40
2018-06-21T22:48:01.940Z,90.20
2018-06-21T22:50:30.612Z,89.80
2018-06-21T22:52:59.258Z,88.90
2018-06-21T22:55:27.897Z,90.20
2018-06-21T22:57:56.610Z,89.80
2018-06-21T23:00:25.278Z,90.00
2018-06-21T23:02:53.894Z,90.00
2018-06-21T23:05:22.626Z,90.00
2018-06-21T23:07:51.270Z,90.10
2018-06-21T23:13:35.932Z,90.20
2018-06-21T23:16:04.550Z,90.00
2018-06-21T23:18:44.441Z,90.50
2018-06-21T23:21:13.130Z,90.70
2018-06-21T23:23:41.774Z,91.50
2018-06-21T23:26:10.541Z,90.50
2018-06-21T23:28:39.174Z,91.10
2018-06-21T23:31:08.002Z,90.80
2018-06-21T23:33:36.673Z,91.70
2018-06-21T23:36:05.477Z,91.30
2018-06-21T23:38:34.164Z,91.40
2018-06-21T23:41:02.784Z,92.10
2018-06-21T23:43:31.456Z,91.50
2018-06-21T23:46:00.136Z,92.00
2018-06-21T23:48:28.879Z,91.70
2018-06-21T23:50:57.574Z,91.60
2018-06-21T23:53:26.293Z,92.10
2018-06-21T23:55:55.089Z,92.80
2018-06-21T23:58:23.768Z,93.00
